createdAt,value
2018-09-30T00:00:10.141Z,0
2018-09-30T00:01:20.025Z,0
2018-09-30T00:02:30.184Z,0
2018-09-30T00:03:39.801Z,0
2018-09-30T00:04:49.686Z,0
2018-09-30T00:05:59.891Z,0
2018-09-30T00:07:09.781Z,0
2018-09-30T00:08:19.672Z,0
2018-09-30T00:09:29.594Z,0
2018-09-30T00:10:39.205Z,0
2018-09-30T00:11:49.377Z,0
2018-09-30T00:12:58.993Z,0
2018-09-30T00:14:08.604Z,0
2018-09-30T00:15:18.217Z,0
2018-09-30T00:16:28.139Z,0
2018-09-30T00:17:37.755Z,0
2018-09-30T00:18:47.916Z,0
2018-09-30T00:19:57.836Z,0
2018-09-30T00:21:07.447Z,0
2018-09-30T00:22:17.639Z,0
2018-09-30T00:23:26.980Z,0
2018-09-30T00:24:37.160Z,0
2018-09-30T00:25:47.049Z,0
2018-09-30T00:26:57.224Z,0
2018-09-30T00:28:06.839Z,0
2018-09-30T00:29:17.046Z,0
2018-09-30T00:30:26.114Z,0
2018-09-30T00:31:36.012Z,0
2018-09-30T00:32:45.903Z,0
2018-09-30T00:33:56.074Z,0
2018-09-30T00:35:05.889Z,0
2018-09-30T00:36:15.994Z,0
2018-09-30T00:37:25.990Z,0
2018-09-30T00:38:36.164Z,0
2018-09-30T00:39:46.049Z,0
2018-09-30T00:40:55.935Z,0
2018-09-30T00:42:06.099Z,0
2018-09-30T00:43:15.724Z,0
2018-09-30T00:44:25.620Z,0
2018-09-30T00:45:35.509Z,0
2018-09-30T00:46:45.421Z,0
2018-09-30T00:47:55.352Z,0
2018-09-30T00:49:04.696Z,0
2018-09-30T00:50:14.309Z,0
2018-09-30T00:51:23.925Z,0
2018-09-30T00:52:33.556Z,0
2018-09-30T00:53:43.443Z,0
2018-09-30T00:54:53.341Z,0
2018-09-30T00:56:02.408Z,0
2018-09-30T00:57:12.022Z,0
2018-09-30T00:58:22.187Z,0
2018-09-30T00:59:32.086Z,0
2018-09-30T01:00:42.254Z,0
2018-09-30T01:01:51.871Z,0
2018-09-30T01:03:02.032Z,0
2018-09-30T01:04:11.922Z,0
2018-09-30T01:05:21.814Z,0
2018-09-30T01:06:31.720Z,0
2018-09-30T01:07:41.879Z,0
2018-09-30T01:08:51.768Z,0
2018-09-30T01:10:01.384Z,0
2018-09-30T01:11:10.727Z,0
2018-09-30T01:12:20.616Z,0
2018-09-30T01:13:30.496Z,0
2018-09-30T01:14:40.389Z,0
2018-09-30T01:15:50.098Z,0
2018-09-30T01:17:00.301Z,0
2018-09-30T01:18:10.188Z,0
2018-09-30T01:19:20.352Z,0
2018-09-30T01:20:29.723Z,0
2018-09-30T01:21:39.343Z,0
2018-09-30T01:22:49.501Z,0
2018-09-30T01:23:59.395Z,0
2018-09-30T01:25:09.321Z,0
2018-09-30T01:26:19.486Z,0
2018-09-30T01:27:29.129Z,0
2018-09-30T01:28:38.745Z,0
2018-09-30T01:29:48.083Z,0
2018-09-30T01:30:58.000Z,0
2018-09-30T01:32:07.890Z,0
2018-09-30T01:33:18.044Z,0
2018-09-30T01:34:27.660Z,0
2018-09-30T01:35:37.002Z,0
2018-09-30T01:36:46.899Z,0
2018-09-30T01:37:56.785Z,0
2018-09-30T01:39:06.435Z,0
2018-09-30T01:40:16.622Z,0
2018-09-30T01:41:26.275Z,0
2018-09-30T01:42:36.165Z,0
2018-09-30T01:43:45.781Z,0
2018-09-30T01:44:55.674Z,0
2018-09-30T01:46:05.627Z,0
2018-09-30T01:47:15.278Z,0
2018-09-30T01:48:25.455Z,0
2018-09-30T01:49:35.649Z,0
2018-09-30T01:50:45.317Z,0
2018-09-30T01:51:54.655Z,0
2018-09-30T01:53:04.307Z,0
2018-09-30T01:54:14.463Z,0
2018-09-30T01:55:24.347Z,0
2018-09-30T01:56:34.243Z,0
2018-09-30T01:57:43.861Z,0
2018-09-30T01:58:54.032Z,0
2018-09-30T02:00:03.652Z,0
2018-09-30T02:01:13.541Z,0
2018-09-30T02:02:22.609Z,0
2018-09-30T02:03:32.498Z,0
2018-09-30T02:04:42.665Z,0
2018-09-30T02:05:52.552Z,0
2018-09-30T02:07:02.445Z,0
2018-09-30T02:08:11.834Z,0
2018-09-30T02:09:21.722Z,0
2018-09-30T02:10:31.882Z,0
2018-09-30T02:11:41.766Z,0
2018-09-30T02:12:51.376Z,0
2018-09-30T02:14:01.302Z,0
2018-09-30T02:15:10.640Z,0
2018-09-30T02:16:20.252Z,0
2018-09-30T02:17:30.142Z,0
2018-09-30T02:18:40.060Z,0
2018-09-30T02:19:49.724Z,0
2018-09-30T02:20:59.618Z,0
2018-09-30T02:22:09.502Z,0
2018-09-30T02:23:19.392Z,0
2018-09-30T02:24:29.007Z,0
2018-09-30T02:25:38.624Z,0
2018-09-30T02:26:47.966Z,0
2018-09-30T02:27:58.128Z,0
2018-09-30T02:29:08.018Z,0
2018-09-30T02:30:17.363Z,0
2018-09-30T02:31:27.572Z,0
2018-09-30T02:32:37.463Z,0
2018-09-30T02:33:47.087Z,0
2018-09-30T02:34:56.159Z,0
2018-09-30T02:36:06.064Z,0
2018-09-30T02:37:15.679Z,0
2018-09-30T02:38:25.292Z,0
2018-09-30T02:39:35.193Z,0
2018-09-30T02:40:45.086Z,0
2018-09-30T02:41:54.713Z,0
2018-09-30T02:43:04.916Z,0
2018-09-30T02:44:14.810Z,0
2018-09-30T02:45:24.975Z,0
2018-09-30T02:46:34.868Z,0
2018-09-30T02:47:44.482Z,0
2018-09-30T02:48:54.648Z,0
2018-09-30T02:50:04.356Z,0
2018-09-30T02:51:14.214Z,0
2018-09-30T02:52:23.838Z,0
2018-09-30T02:53:33.451Z,0
2018-09-30T02:54:43.608Z,0
2018-09-30T02:55:52.949Z,0
2018-09-30T02:57:02.842Z,0
2018-09-30T02:58:12.459Z,0
2018-09-30T02:59:21.804Z,0
2018-09-30T03:00:31.469Z,0
2018-09-30T03:01:41.391Z,0
2018-09-30T03:02:51.327Z,0
2018-09-30T03:04:01.215Z,0
2018-09-30T03:05:11.105Z,0
2018-09-30T03:06:20.734Z,0
2018-09-30T03:07:30.631Z,0
2018-09-30T03:08:39.975Z,0
2018-09-30T03:09:50.148Z,0
2018-09-30T03:10:59.758Z,0
2018-09-30T03:12:09.094Z,0
2018-09-30T03:13:19.034Z,0
2018-09-30T03:14:28.654Z,0
2018-09-30T03:15:38.548Z,0
2018-09-30T03:16:48.473Z,0
2018-09-30T03:17:58.646Z,0
2018-09-30T03:19:08.271Z,0
2018-09-30T03:20:17.882Z,0
2018-09-30T03:21:28.044Z,0
2018-09-30T03:22:37.932Z,0
2018-09-30T03:23:47.824Z,0
2018-09-30T03:24:57.442Z,0
2018-09-30T03:26:07.325Z,0
2018-09-30T03:27:17.499Z,0
2018-09-30T03:28:27.415Z,0
2018-09-30T03:29:37.584Z,0
2018-09-30T03:30:47.266Z,0
2018-09-30T03:31:57.494Z,0
2018-09-30T03:33:07.387Z,0
2018-09-30T03:34:17.306Z,0
2018-09-30T03:35:26.649Z,0
2018-09-30T03:36:36.534Z,0
2018-09-30T03:37:46.704Z,0
2018-09-30T03:38:56.324Z,0
2018-09-30T03:40:05.668Z,0
2018-09-30T03:41:15.872Z,0
2018-09-30T03:42:25.490Z,0
2018-09-30T03:43:35.392Z,0
2018-09-30T03:44:45.277Z,0
2018-09-30T03:45:55.169Z,0
2018-09-30T03:47:05.337Z,0
2018-09-30T03:48:15.305Z,0
2018-09-30T03:49:25.481Z,0
2018-09-30T03:50:34.856Z,0
2018-09-30T03:51:44.756Z,0
2018-09-30T03:52:54.704Z,0
2018-09-30T03:54:04.372Z,0
2018-09-30T03:55:14.028Z,0
2018-09-30T03:56:23.915Z,0
2018-09-30T03:57:34.088Z,0
2018-09-30T03:58:43.758Z,0
2018-09-30T03:59:53.915Z,0
2018-09-30T04:01:03.848Z,0
2018-09-30T04:02:13.480Z,0
2018-09-30T04:03:23.116Z,0
2018-09-30T04:04:33.019Z,0
2018-09-30T04:05:42.355Z,0
2018-09-30T04:06:51.970Z,0
2018-09-30T04:08:01.040Z,0
2018-09-30T04:09:10.657Z,0
2018-09-30T04:10:20.523Z,0
2018-09-30T04:11:30.684Z,0
2018-09-30T04:12:40.578Z,0
2018-09-30T04:13:49.929Z,0
2018-09-30T04:15:00.118Z,0
2018-09-30T04:16:10.009Z,0
2018-09-30T04:17:19.954Z,0
2018-09-30T04:18:29.860Z,0
2018-09-30T04:19:40.063Z,0
2018-09-30T04:20:50.001Z,0
2018-09-30T04:22:00.168Z,0
2018-09-30T04:23:10.062Z,0
2018-09-30T04:24:20.240Z,0
2018-09-30T04:25:29.858Z,0
2018-09-30T04:26:39.485Z,0
2018-09-30T04:27:49.646Z,0
2018-09-30T04:28:58.981Z,0
2018-09-30T04:30:08.054Z,0
2018-09-30T04:31:17.668Z,0
2018-09-30T04:32:27.284Z,0
2018-09-30T04:33:36.901Z,0
2018-09-30T04:34:47.108Z,0
2018-09-30T04:35:56.410Z,0
2018-09-30T04:37:06.570Z,0
2018-09-30T04:38:15.911Z,0
2018-09-30T04:39:26.087Z,0
2018-09-30T04:40:36.257Z,0
2018-09-30T04:41:46.155Z,0
2018-09-30T04:42:55.773Z,0
2018-09-30T04:44:05.391Z,0
2018-09-30T04:45:15.284Z,0
2018-09-30T04:46:25.174Z,0
2018-09-30T04:47:35.054Z,0
2018-09-30T04:48:44.668Z,0
2018-09-30T04:49:54.381Z,0
2018-09-30T04:51:04.375Z,0
2018-09-30T04:52:13.719Z,0
2018-09-30T04:53:23.900Z,0
2018-09-30T04:54:33.533Z,0
2018-09-30T04:55:43.149Z,0
2018-09-30T04:56:52.795Z,0
2018-09-30T04:58:02.404Z,0
2018-09-30T04:59:11.748Z,0
2018-09-30T05:00:21.363Z,0
2018-09-30T05:01:31.623Z,0
2018-09-30T05:02:41.512Z,0
2018-09-30T05:03:51.123Z,0
2018-09-30T05:05:00.737Z,0
2018-09-30T05:06:10.628Z,0
2018-09-30T05:07:20.789Z,0
2018-09-30T05:08:30.140Z,0
2018-09-30T05:09:40.028Z,0
2018-09-30T05:10:49.668Z,0
2018-09-30T05:11:59.556Z,0
2018-09-30T05:13:09.713Z,0
2018-09-30T05:14:19.650Z,0
2018-09-30T05:15:29.535Z,0
2018-09-30T05:16:39.726Z,0
2018-09-30T05:17:49.641Z,0
2018-09-30T05:18:59.253Z,0
2018-09-30T05:20:09.456Z,5
2018-09-30T05:21:19.072Z,5
2018-09-30T05:22:28.970Z,5
2018-09-30T05:23:38.891Z,5
2018-09-30T05:24:48.824Z,5
2018-09-30T05:25:58.573Z,5
2018-09-30T05:27:08.213Z,10
2018-09-30T05:28:17.829Z,10
2018-09-30T05:29:27.437Z,10
2018-09-30T05:30:37.053Z,10
2018-09-30T05:31:46.947Z,15
2018-09-30T05:32:56.836Z,15
2018-09-30T05:34:06.753Z,20
2018-09-30T05:35:16.092Z,20
2018-09-30T05:36:25.977Z,20
2018-09-30T05:37:35.806Z,25
2018-09-30T05:38:46.010Z,25
2018-09-30T05:39:55.894Z,30
2018-09-30T05:41:05.517Z,30
2018-09-30T05:42:15.682Z,35
2018-09-30T05:43:25.571Z,35
2018-09-30T05:44:35.193Z,40
2018-09-30T05:45:45.084Z,40
2018-09-30T05:46:54.694Z,45
2018-09-30T05:48:04.719Z,45
2018-09-30T05:49:14.835Z,50
2018-09-30T05:50:24.784Z,50
2018-09-30T05:51:34.947Z,55
2018-09-30T05:52:44.867Z,55
2018-09-30T05:53:54.763Z,60
2018-09-30T05:55:04.381Z,60
2018-09-30T05:56:13.727Z,60
2018-09-30T05:57:23.638Z,65
2018-09-30T05:58:33.252Z,65
2018-09-30T05:59:43.403Z,65
2018-09-30T06:00:53.570Z,65
2018-09-30T06:02:03.463Z,65
2018-09-30T06:03:13.657Z,65
2018-09-30T06:04:23.543Z,65
2018-09-30T06:05:33.710Z,65
2018-09-30T06:06:43.594Z,65
2018-09-30T06:07:53.479Z,65
2018-09-30T06:09:03.885Z,65
2018-09-30T06:10:13.703Z,70
2018-09-30T06:11:23.868Z,70
2018-09-30T06:12:34.029Z,70
2018-09-30T06:13:44.052Z,70
2018-09-30T06:14:54.282Z,70
2018-09-30T06:16:04.703Z,75
2018-09-30T06:17:14.361Z,75
2018-09-30T06:18:24.371Z,70
2018-09-30T06:19:34.290Z,70
2018-09-30T06:20:44.206Z,65
2018-09-30T06:21:54.366Z,70
2018-09-30T06:23:03.976Z,70
2018-09-30T06:24:14.391Z,70
2018-09-30T06:25:24.369Z,70
2018-09-30T06:26:34.257Z,75
2018-09-30T06:27:43.590Z,75
2018-09-30T06:28:53.476Z,75
2018-09-30T06:30:03.689Z,80
2018-09-30T06:31:13.580Z,80
2018-09-30T06:32:23.935Z,85
2018-09-30T06:33:34.112Z,85
2018-09-30T06:34:44.279Z,95
2018-09-30T06:35:54.520Z,100
2018-09-30T06:37:04.192Z,105
2018-09-30T06:38:14.127Z,105
2018-09-30T06:39:23.736Z,105
2018-09-30T06:40:34.416Z,110
2018-09-30T06:41:44.312Z,110
2018-09-30T06:42:54.204Z,110
2018-09-30T06:44:03.815Z,110
2018-09-30T06:45:14.532Z,110
2018-09-30T06:46:24.202Z,110
2018-09-30T06:47:34.143Z,110
2018-09-30T06:48:44.036Z,115
2018-09-30T06:49:53.097Z,115
2018-09-30T06:51:03.498Z,115
2018-09-30T06:52:13.750Z,115
2018-09-30T06:53:23.639Z,115
2018-09-30T06:54:33.528Z,115
2018-09-30T06:55:42.871Z,115
2018-09-30T06:56:52.492Z,115
2018-09-30T06:58:02.422Z,115
2018-09-30T06:59:11.804Z,115
2018-09-30T07:00:21.425Z,115
2018-09-30T07:01:31.312Z,115
2018-09-30T07:02:40.653Z,115
2018-09-30T07:03:50.828Z,120
2018-09-30T07:05:01.399Z,120
2018-09-30T07:06:11.115Z,120
2018-09-30T07:07:21.002Z,120
2018-09-30T07:08:30.626Z,120
2018-09-30T07:09:40.784Z,120
2018-09-30T07:10:50.893Z,120
2018-09-30T07:12:01.120Z,120
2018-09-30T07:13:10.730Z,120
2018-09-30T07:14:20.353Z,125
2018-09-30T07:15:30.235Z,125
2018-09-30T07:16:40.170Z,125
2018-09-30T07:17:49.524Z,125
2018-09-30T07:18:59.733Z,125
2018-09-30T07:20:09.362Z,125
2018-09-30T07:21:18.428Z,125
2018-09-30T07:22:28.761Z,125
2018-09-30T07:23:38.660Z,125
2018-09-30T07:24:48.548Z,130
2018-09-30T07:25:57.901Z,130
2018-09-30T07:27:08.067Z,130
2018-09-30T07:28:18.236Z,130
2018-09-30T07:29:28.128Z,130
2018-09-30T07:30:38.314Z,130
2018-09-30T07:31:47.928Z,130
2018-09-30T07:32:57.876Z,130
2018-09-30T07:34:07.826Z,130
2018-09-30T07:35:17.177Z,130
2018-09-30T07:36:26.803Z,130
2018-09-30T07:37:36.970Z,130
2018-09-30T07:38:46.900Z,135
2018-09-30T07:39:56.783Z,135
2018-09-30T07:41:06.704Z,135
2018-09-30T07:42:16.593Z,135
2018-09-30T07:43:26.204Z,135
2018-09-30T07:44:36.372Z,135
2018-09-30T07:45:45.981Z,135
2018-09-30T07:46:56.803Z,135
2018-09-30T07:48:06.414Z,135
2018-09-30T07:49:16.610Z,135
2018-09-30T07:50:26.232Z,135
2018-09-30T07:51:35.849Z,135
2018-09-30T07:52:45.971Z,135
2018-09-30T07:53:55.311Z,135
2018-09-30T07:55:04.657Z,135
2018-09-30T07:56:14.560Z,135
2018-09-30T07:57:24.443Z,135
2018-09-30T07:58:34.610Z,135
2018-09-30T07:59:44.231Z,135
2018-09-30T08:00:54.163Z,140
2018-09-30T08:02:03.777Z,140
2018-09-30T08:03:12.848Z,140
2018-09-30T08:04:22.742Z,140
2018-09-30T08:05:32.356Z,140
2018-09-30T08:06:42.087Z,140
2018-09-30T08:07:52.253Z,140
2018-09-30T08:09:01.634Z,140
2018-09-30T08:10:10.983Z,140
2018-09-30T08:11:20.606Z,140
2018-09-30T08:12:30.248Z,140
2018-09-30T08:13:40.161Z,140
2018-09-30T08:14:49.774Z,140
2018-09-30T08:15:59.671Z,140
2018-09-30T08:17:09.440Z,140
2018-09-30T08:18:19.331Z,140
2018-09-30T08:19:28.942Z,145
2018-09-30T08:20:39.109Z,145
2018-09-30T08:21:48.726Z,145
2018-09-30T08:22:58.350Z,145
2018-09-30T08:24:09.006Z,145
2018-09-30T08:25:19.262Z,145
2018-09-30T08:26:28.882Z,145
2018-09-30T08:27:38.766Z,145
2018-09-30T08:28:48.927Z,150
2018-09-30T08:29:58.819Z,150
2018-09-30T08:31:08.162Z,150
2018-09-30T08:32:18.290Z,150
2018-09-30T08:33:28.182Z,150
2018-09-30T08:34:37.803Z,150
2018-09-30T08:35:47.424Z,150
2018-09-30T08:36:57.057Z,150
2018-09-30T08:38:06.677Z,150
2018-09-30T08:39:16.841Z,150
2018-09-30T08:40:26.190Z,150
2018-09-30T08:41:36.082Z,155
2018-09-30T08:42:45.975Z,155
2018-09-30T08:43:56.221Z,155
2018-09-30T08:45:05.887Z,155
2018-09-30T08:46:15.509Z,155
2018-09-30T08:47:25.969Z,155
2018-09-30T08:48:36.217Z,155
2018-09-30T08:49:46.146Z,155
2018-09-30T08:50:56.038Z,155
2018-09-30T08:52:05.960Z,155
2018-09-30T08:53:15.304Z,160
2018-09-30T08:54:24.931Z,155
2018-09-30T08:55:34.291Z,160
2018-09-30T08:56:43.652Z,160
2018-09-30T08:57:53.537Z,160
2018-09-30T08:59:03.500Z,160
2018-09-30T09:00:13.423Z,160
2018-09-30T09:01:22.766Z,160
2018-09-30T09:02:32.660Z,155
2018-09-30T09:03:42.864Z,155
2018-09-30T09:04:52.760Z,155
2018-09-30T09:06:02.653Z,155
2018-09-30T09:07:12.267Z,155
2018-09-30T09:08:22.193Z,155
2018-09-30T09:09:32.371Z,155
2018-09-30T09:10:42.548Z,155
2018-09-30T09:11:52.750Z,155
2018-09-30T09:13:03.172Z,160
2018-09-30T09:14:13.067Z,160
2018-09-30T09:15:22.856Z,160
2018-09-30T09:16:32.776Z,160
2018-09-30T09:17:42.392Z,160
2018-09-30T09:18:52.053Z,160
2018-09-30T09:20:01.682Z,160
2018-09-30T09:21:11.852Z,160
2018-09-30T09:22:22.121Z,160
2018-09-30T09:23:31.965Z,160
2018-09-30T09:24:41.861Z,160
2018-09-30T09:25:51.750Z,165
2018-09-30T09:27:01.370Z,160
2018-09-30T09:28:11.596Z,160
2018-09-30T09:29:20.961Z,160
2018-09-30T09:30:31.133Z,160
2018-09-30T09:31:41.242Z,160
2018-09-30T09:32:51.497Z,160
2018-09-30T09:34:01.404Z,165
2018-09-30T09:35:11.725Z,165
2018-09-30T09:36:21.355Z,165
2018-09-30T09:37:31.288Z,165
2018-09-30T09:38:41.737Z,165
2018-09-30T09:39:51.351Z,165
2018-09-30T09:41:00.701Z,165
2018-09-30T09:42:10.324Z,165
2018-09-30T09:43:19.944Z,165
2018-09-30T09:44:30.114Z,165
2018-09-30T09:45:39.968Z,170
2018-09-30T09:46:50.176Z,170
2018-09-30T09:47:59.799Z,170
2018-09-30T09:49:09.422Z,170
2018-09-30T09:50:19.323Z,170
2018-09-30T09:51:29.211Z,170
2018-09-30T09:52:39.510Z,170
2018-09-30T09:53:49.495Z,170
2018-09-30T09:54:59.390Z,175
2018-09-30T09:56:09.293Z,175
2018-09-30T09:57:19.463Z,175
2018-09-30T09:58:29.364Z,175
2018-09-30T09:59:39.257Z,175
2018-09-30T10:00:48.879Z,175
2018-09-30T10:01:58.502Z,175
2018-09-30T10:03:08.121Z,175
2018-09-30T10:04:18.290Z,175
2018-09-30T10:05:28.460Z,175
2018-09-30T10:06:38.358Z,180
2018-09-30T10:07:48.521Z,180
2018-09-30T10:08:58.687Z,180
2018-09-30T10:10:08.512Z,180
2018-09-30T10:11:17.857Z,180
2018-09-30T10:12:28.052Z,175
2018-09-30T10:13:37.677Z,180
2018-09-30T10:14:46.753Z,180
2018-09-30T10:15:56.100Z,180
2018-09-30T10:17:05.456Z,180
2018-09-30T10:18:15.073Z,180
2018-09-30T10:19:24.459Z,180
2018-09-30T10:20:33.768Z,180
2018-09-30T10:21:43.969Z,180
2018-09-30T10:22:53.657Z,185
2018-09-30T10:24:03.544Z,185
2018-09-30T10:25:13.439Z,185
2018-09-30T10:26:23.059Z,185
2018-09-30T10:27:32.955Z,185
2018-09-30T10:28:42.849Z,185
2018-09-30T10:29:52.193Z,185
2018-09-30T10:31:02.089Z,185
2018-09-30T10:32:11.436Z,185
2018-09-30T10:33:21.331Z,190
2018-09-30T10:34:31.223Z,190
2018-09-30T10:35:41.322Z,190
2018-09-30T10:36:51.217Z,190
2018-09-30T10:38:01.115Z,190
2018-09-30T10:39:12.450Z,190
2018-09-30T10:40:22.723Z,190
2018-09-30T10:41:32.889Z,190
2018-09-30T10:42:42.786Z,185
2018-09-30T10:43:52.681Z,180
2018-09-30T10:45:02.596Z,155
2018-09-30T10:46:12.210Z,155
2018-09-30T10:47:22.103Z,165
2018-09-30T10:48:31.759Z,175
2018-09-30T10:49:41.467Z,190
2018-09-30T10:50:51.634Z,200
2018-09-30T10:52:01.529Z,195
2018-09-30T10:53:11.154Z,200
2018-09-30T10:54:20.776Z,200
2018-09-30T10:55:30.792Z,195
2018-09-30T10:56:41.034Z,195
2018-09-30T10:57:50.952Z,205
2018-09-30T10:59:00.299Z,205
2018-09-30T11:00:10.200Z,195
2018-09-30T11:01:20.365Z,200
2018-09-30T11:02:30.003Z,210
2018-09-30T11:03:40.723Z,215
2018-09-30T11:04:50.072Z,215
2018-09-30T11:05:59.969Z,220
2018-09-30T11:07:10.134Z,220
2018-09-30T11:08:20.313Z,225
2018-09-30T11:09:30.310Z,225
2018-09-30T11:10:39.860Z,230
2018-09-30T11:11:49.757Z,230
2018-09-30T11:12:59.925Z,235
2018-09-30T11:14:10.159Z,240
2018-09-30T11:15:20.102Z,245
2018-09-30T11:16:29.455Z,255
2018-09-30T11:17:39.399Z,275
2018-09-30T11:18:48.746Z,305
2018-09-30T11:19:58.918Z,330
2018-09-30T11:21:08.262Z,345
2018-09-30T11:22:18.201Z,330
2018-09-30T11:23:27.551Z,335
2018-09-30T11:24:37.453Z,340
2018-09-30T11:25:47.076Z,340
2018-09-30T11:26:56.745Z,325
2018-09-30T11:28:06.370Z,305
2018-09-30T11:29:16.536Z,300
2018-09-30T11:30:26.428Z,300
2018-09-30T11:31:36.324Z,285
2018-09-30T11:32:46.535Z,265
2018-09-30T11:33:56.437Z,240
2018-09-30T11:35:06.388Z,240
2018-09-30T11:36:16.559Z,240
2018-09-30T11:37:26.769Z,245
2018-09-30T11:38:36.707Z,255
2018-09-30T11:39:46.330Z,260
2018-09-30T11:40:56.228Z,275
2018-09-30T11:42:06.161Z,290
2018-09-30T11:43:15.779Z,315
2018-09-30T11:44:25.828Z,325
2018-09-30T11:45:35.723Z,330
2018-09-30T11:46:45.630Z,330
2018-09-30T11:47:55.551Z,325
2018-09-30T11:49:04.621Z,320
2018-09-30T11:50:14.839Z,320
2018-09-30T11:51:24.462Z,315
2018-09-30T11:52:34.458Z,320
2018-09-30T11:53:44.360Z,310
2018-09-30T11:54:53.449Z,325
2018-09-30T11:56:03.066Z,315
2018-09-30T11:57:12.707Z,310
2018-09-30T11:58:22.874Z,300
2018-09-30T11:59:32.780Z,290
2018-09-30T12:00:42.403Z,280
2018-09-30T12:01:52.026Z,275
2018-09-30T12:03:02.209Z,270
2018-09-30T12:04:11.830Z,260
2018-09-30T12:05:22.004Z,245
2018-09-30T12:06:31.632Z,235
2018-09-30T12:07:41.577Z,225
2018-09-30T12:08:51.778Z,220
2018-09-30T12:10:01.394Z,220
2018-09-30T12:11:11.017Z,215
2018-09-30T12:12:21.182Z,210
2018-09-30T12:13:31.076Z,210
2018-09-30T12:14:40.972Z,200
2018-09-30T12:15:51.146Z,200
2018-09-30T12:17:01.319Z,205
2018-09-30T12:18:11.218Z,210
2018-09-30T12:19:21.126Z,220
2018-09-30T12:20:30.743Z,220
2018-09-30T12:21:40.640Z,215
2018-09-30T12:22:49.985Z,225
2018-09-30T12:24:00.153Z,220
2018-09-30T12:25:10.121Z,225
2018-09-30T12:26:19.748Z,245
2018-09-30T12:27:29.677Z,255
2018-09-30T12:28:39.298Z,225
2018-09-30T12:29:49.230Z,220
2018-09-30T12:30:58.897Z,220
2018-09-30T12:32:08.532Z,225
2018-09-30T12:33:18.704Z,235
2018-09-30T12:34:28.864Z,235
2018-09-30T12:35:38.494Z,255
2018-09-30T12:36:48.426Z,270
2018-09-30T12:37:58.325Z,290
2018-09-30T12:39:08.275Z,310
2018-09-30T12:40:17.848Z,340
2018-09-30T12:41:28.017Z,360
2018-09-30T12:42:38.229Z,360
2018-09-30T12:43:48.121Z,375
2018-09-30T12:44:57.740Z,380
2018-09-30T12:46:07.102Z,380
2018-09-30T12:47:16.722Z,390
2018-09-30T12:48:26.399Z,390
2018-09-30T12:49:36.571Z,365
2018-09-30T12:50:46.461Z,355
2018-09-30T12:51:56.668Z,330
2018-09-30T12:53:06.576Z,330
2018-09-30T12:54:16.183Z,330
2018-09-30T12:55:26.119Z,345
2018-09-30T12:56:36.318Z,355
2018-09-30T12:57:45.945Z,375
2018-09-30T12:58:55.571Z,390
2018-09-30T13:00:05.746Z,405
2018-09-30T13:01:15.371Z,430
2018-09-30T13:02:25.605Z,450
2018-09-30T13:03:34.964Z,465
2018-09-30T13:04:44.856Z,500
2018-09-30T13:05:55.587Z,535
2018-09-30T13:07:05.225Z,560
2018-09-30T13:08:15.389Z,595
2018-09-30T13:09:25.018Z,620
2018-09-30T13:10:34.915Z,670
2018-09-30T13:11:45.091Z,695
2018-09-30T13:12:54.722Z,735
2018-09-30T13:14:04.582Z,700
2018-09-30T13:15:13.925Z,675
2018-09-30T13:16:24.110Z,660
2018-09-30T13:17:34.039Z,640
2018-09-30T13:18:44.224Z,630
2018-09-30T13:19:54.131Z,620
2018-09-30T13:21:04.814Z,610
2018-09-30T13:22:14.774Z,600
2018-09-30T13:23:24.717Z,595
2018-09-30T13:24:34.341Z,590
2018-09-30T13:25:44.252Z,575
2018-09-30T13:26:54.149Z,570
2018-09-30T13:28:04.073Z,565
2018-09-30T13:29:14.021Z,550
2018-09-30T13:30:23.377Z,530
2018-09-30T13:31:33.275Z,515
2018-09-30T13:32:43.173Z,505
2018-09-30T13:33:52.795Z,500
2018-09-30T13:35:02.428Z,485
2018-09-30T13:36:11.511Z,470
2018-09-30T13:37:21.686Z,460
2018-09-30T13:38:31.313Z,455
2018-09-30T13:39:40.946Z,445
2018-09-30T13:40:51.463Z,440
2018-09-30T13:42:01.732Z,435
2018-09-30T13:43:11.079Z,430
2018-09-30T13:44:20.967Z,425
2018-09-30T13:45:31.129Z,420
2018-09-30T13:46:41.300Z,410
2018-09-30T13:47:50.926Z,405
2018-09-30T13:49:00.818Z,395
2018-09-30T13:50:10.721Z,380
2018-09-30T13:51:20.727Z,370
2018-09-30T13:52:30.409Z,360
2018-09-30T13:53:40.626Z,360
2018-09-30T13:54:50.523Z,360
2018-09-30T13:56:00.700Z,370
2018-09-30T13:57:10.874Z,385
2018-09-30T13:58:20.992Z,400
2018-09-30T13:59:30.299Z,415
2018-09-30T14:00:40.243Z,425
2018-09-30T14:01:50.411Z,430
2018-09-30T14:03:00.576Z,435
2018-09-30T14:04:10.476Z,435
2018-09-30T14:05:20.654Z,435
2018-09-30T14:06:30.284Z,430
2018-09-30T14:07:40.459Z,430
2018-09-30T14:08:50.366Z,430
2018-09-30T14:10:00.258Z,425
2018-09-30T14:11:10.429Z,425
2018-09-30T14:12:20.354Z,425
2018-09-30T14:13:29.981Z,415
2018-09-30T14:14:40.111Z,405
2018-09-30T14:15:49.738Z,400
2018-09-30T14:16:59.641Z,400
2018-09-30T14:18:09.271Z,405
2018-09-30T14:19:18.619Z,405
2018-09-30T14:20:28.512Z,405
2018-09-30T14:21:38.169Z,405
2018-09-30T14:22:47.796Z,405
2018-09-30T14:23:57.691Z,400
2018-09-30T14:25:07.044Z,400
2018-09-30T14:26:17.212Z,395
2018-09-30T14:27:28.212Z,400
2018-09-30T14:28:38.247Z,400
2018-09-30T14:29:47.872Z,395
2018-09-30T14:30:58.041Z,395
2018-09-30T14:32:07.938Z,395
2018-09-30T14:33:17.974Z,400
2018-09-30T14:34:28.119Z,395
2018-09-30T14:35:38.043Z,390
2018-09-30T14:36:47.446Z,385
2018-09-30T14:37:57.102Z,385
2018-09-30T14:39:07.044Z,385
2018-09-30T14:40:16.672Z,375
2018-09-30T14:41:26.295Z,365
2018-09-30T14:42:36.194Z,350
2018-09-30T14:43:45.540Z,340
2018-09-30T14:44:55.160Z,330
2018-09-30T14:46:04.776Z,325
2018-09-30T14:47:14.678Z,315
2018-09-30T14:48:25.427Z,315
2018-09-30T14:49:34.775Z,310
2018-09-30T14:50:44.132Z,305
2018-09-30T14:51:54.026Z,300
2018-09-30T14:53:03.654Z,295
2018-09-30T14:54:13.961Z,290
2018-09-30T14:55:23.312Z,280
2018-09-30T14:56:33.496Z,275
2018-09-30T14:57:43.599Z,275
2018-09-30T14:58:53.537Z,275
2018-09-30T15:00:03.155Z,280
2018-09-30T15:01:13.049Z,280
2018-09-30T15:02:22.394Z,275
2018-09-30T15:03:31.750Z,265
2018-09-30T15:04:41.927Z,260
2018-09-30T15:05:51.550Z,250
2018-09-30T15:07:01.715Z,245
2018-09-30T15:08:11.613Z,240
2018-09-30T15:09:21.519Z,235
2018-09-30T15:10:31.703Z,220
2018-09-30T15:11:41.601Z,200
2018-09-30T15:12:51.504Z,185
2018-09-30T15:14:01.726Z,175
2018-09-30T15:15:11.635Z,165
2018-09-30T15:16:21.260Z,165
2018-09-30T15:17:31.742Z,175
2018-09-30T15:18:41.723Z,175
2018-09-30T15:19:51.350Z,180
2018-09-30T15:21:01.253Z,180
2018-09-30T15:22:11.149Z,180
2018-09-30T15:23:20.540Z,180
2018-09-30T15:24:30.438Z,180
2018-09-30T15:25:39.784Z,170
2018-09-30T15:26:48.860Z,160
2018-09-30T15:27:58.760Z,150
2018-09-30T15:29:08.657Z,140
2018-09-30T15:30:18.563Z,135
2018-09-30T15:31:28.506Z,135
2018-09-30T15:32:38.131Z,135
2018-09-30T15:33:48.300Z,135
2018-09-30T15:34:57.922Z,140
2018-09-30T15:36:07.818Z,140
2018-09-30T15:37:17.440Z,135
2018-09-30T15:38:27.341Z,140
2018-09-30T15:39:37.234Z,145
2018-09-30T15:40:47.122Z,150
2018-09-30T15:41:57.288Z,155
2018-09-30T15:43:07.949Z,160
2018-09-30T15:44:17.847Z,160
2018-09-30T15:45:27.476Z,160
2018-09-30T15:46:37.652Z,155
2018-09-30T15:47:47.615Z,150
2018-09-30T15:48:57.293Z,150
2018-09-30T15:50:07.466Z,150
2018-09-30T15:51:17.639Z,145
2018-09-30T15:52:27.810Z,145
2018-09-30T15:53:36.894Z,140
2018-09-30T15:54:46.787Z,135
2018-09-30T15:55:56.696Z,130
2018-09-30T15:57:06.868Z,125
2018-09-30T15:58:16.777Z,125
2018-09-30T15:59:26.679Z,120
2018-09-30T16:00:36.302Z,115
2018-09-30T16:01:46.196Z,110
2018-09-30T16:02:56.369Z,110
2018-09-30T16:04:06.263Z,110
2018-09-30T16:05:15.880Z,110
2018-09-30T16:06:26.103Z,110
2018-09-30T16:07:36.017Z,110
2018-09-30T16:08:45.375Z,105
2018-09-30T16:09:55.308Z,105
2018-09-30T16:11:05.205Z,105
2018-09-30T16:12:14.834Z,100
2018-09-30T16:13:24.186Z,100
2018-09-30T16:14:34.122Z,95
2018-09-30T16:15:43.501Z,90
2018-09-30T16:16:52.859Z,85
2018-09-30T16:18:01.933Z,80
2018-09-30T16:19:11.825Z,80
2018-09-30T16:20:21.993Z,80
2018-09-30T16:21:32.758Z,80
2018-09-30T16:22:42.931Z,75
2018-09-30T16:23:52.553Z,75
2018-09-30T16:25:02.453Z,80
2018-09-30T16:26:12.637Z,75